Fukui, Japan

9:08 AM JST on August 29, 2016 (GMT +0900)
永平寺町 | | Change Station

Elev 0 ft 36.08 °N, 136.36 °E | Updated 6 minutes ago

Mostly Cloudy
Mostly Cloudy
79.7 °F
Feels Like 84 °F
N
0.0
Wind Variable Wind from North
Gusts 1.2 mph

Today
High -- | Low -- °F
--% Chance of Precip.
Yesterday
High -- | Low -- °F
Precip. -- in
Pressure 29.30 in
Visibility 6.2 miles
Clouds Few 5000 ft
Scattered Clouds 12000 ft
Mostly Cloudy 15000 ft
Heat Index 84 °F
Dew Point 75 °F
Humidity 85%
Rainfall 0.00 in
Snow Depth Not available.
5:24 AM 6:27 PM
Waning Crescent, 12% visible
METAR RJNK 290000Z 22003KT 150V260 9999 FEW050 SCT120 BKN150 27/20 Q0992
Pressure 29.30 in
Visibility 6.2 miles
Clouds Few 5000 ft
Scattered Clouds 12000 ft
Mostly Cloudy 15000 ft
Heat Index 84 °F
Dew Point 75 °F
Humidity 85%
Rainfall 0.00 in
Snow Depth Not available.
5:24 AM 6:27 PM
Waning Crescent, 12% visible
METAR RJNK 290000Z 22003KT 150V260 9999 FEW050 SCT120 BKN150 27/20 Q0992

10-Day Weather Forecast

No radar image for this location.
×

Almanac

Astronomy

Aug. 29, 2016 Rise Set
Actual Time
Civil Twilight
Nautical Twilight
Astronomical Twilight
Moon
Length of Visible Light
Length of Day
Tomorrow will be .
, % of the Moon is Illuminated

Today's Extremes

Country Highs Country Lows

Community

WunderPhotos

Upload Photos

1,935,726 photos uploaded!

WunderBlog® & News

Nearby

Air Quality

  Air Quality AQ Index Pollutant
Not available.

Snow Depth

Station Depth Elevation

Earthquake Activity

City Distance Mag. Time & Date
Minimum magnitude displayed is 2.5.

Coastal Water Temperatures

Place Temperature

Stations

Nearby Weather Stations

Station Location Temp. Windchill Dew Point Humidity Wind Precip. Elev Updated Type